createdAt,value
2023-01-17T00:02:24.270Z,76.17
2023-01-17T00:05:10.386Z,76.23
2023-01-17T00:07:56.509Z,76.28
2023-01-17T00:10:27.415Z,76.30
2023-01-17T00:13:00.164Z,76.31
2023-01-17T00:15:30.660Z,76.35
2023-01-17T00:17:59.209Z,76.39
2023-01-17T00:20:49.450Z,76.43
2023-01-17T00:23:40.913Z,76.56
2023-01-17T00:26:18.750Z,76.61
2023-01-17T00:28:48.213Z,76.76
2023-01-17T00:31:17.113Z,76.70
2023-01-17T00:33:45.066Z,76.70
2023-01-17T00:36:15.676Z,76.77
2023-01-17T00:38:43.549Z,76.81
2023-01-17T00:41:14.425Z,76.96
2023-01-17T00:44:00.493Z,76.81
2023-01-17T00:46:46.712Z,76.91
2023-01-17T00:49:32.780Z,76.87
2023-01-17T00:52:19.267Z,76.86
2023-01-17T00:55:05.346Z,76.78
2023-01-17T00:57:51.490Z,76.82
2023-01-17T01:00:38.174Z,76.79
2023-01-17T01:03:29.355Z,76.75
2023-01-17T01:06:16.079Z,76.87
2023-01-17T01:09:02.798Z,76.81
2023-01-17T01:11:48.837Z,76.89
2023-01-17T01:14:35.438Z,76.98
2023-01-17T01:17:22.671Z,76.91
2023-01-17T01:20:08.804Z,76.91
2023-01-17T01:22:55.060Z,77.02
2023-01-17T01:25:41.067Z,77.08
2023-01-17T01:28:30.627Z,77.13
2023-01-17T01:31:23.763Z,77.13
2023-01-17T01:33:52.616Z,77.19
2023-01-17T01:36:20.825Z,77.30
2023-01-17T01:38:49.586Z,77.26
2023-01-17T01:41:17.450Z,77.30
2023-01-17T01:43:54.307Z,77.26
2023-01-17T01:46:40.913Z,77.32
2023-01-17T01:49:20.706Z,77.23
2023-01-17T01:51:55.549Z,77.25
2023-01-17T01:54:33.220Z,77.32
2023-01-17T01:57:04.169Z,77.29
2023-01-17T01:59:33.510Z,77.24
2023-01-17T02:02:01.567Z,77.20
2023-01-17T02:04:29.306Z,77.22
2023-01-17T02:07:14.699Z,77.26
2023-01-17T02:09:42.573Z,77.29
2023-01-17T02:12:11.750Z,77.21
2023-01-17T02:14:39.734Z,77.33
2023-01-17T02:17:39.549Z,77.45
2023-01-17T02:20:44.869Z,77.56
2023-01-17T02:24:00.728Z,77.62
2023-01-17T02:26:59.713Z,77.63
2023-01-17T02:30:25.743Z,77.68
2023-01-17T02:33:03.357Z,77.79
2023-01-17T02:36:03.989Z,77.71
2023-01-17T02:39:09.989Z,77.70
2023-01-17T02:41:42.913Z,77.65
2023-01-17T02:44:16.345Z,77.72
2023-01-17T02:46:56.179Z,77.69
2023-01-17T02:49:29.514Z,77.58
2023-01-17T02:52:46.382Z,77.59
2023-01-17T02:55:35.222Z,77.58
2023-01-17T02:58:41.521Z,77.60
2023-01-17T03:01:18.068Z,77.67
2023-01-17T03:04:10.969Z,77.52
2023-01-17T03:06:47.496Z,77.59
2023-01-17T03:09:16.739Z,77.52
2023-01-17T03:11:44.973Z,77.61
2023-01-17T03:14:12.709Z,77.50
2023-01-17T03:16:41.051Z,77.55
2023-01-17T03:19:09.295Z,77.58
2023-01-17T03:21:37.009Z,77.71
2023-01-17T03:24:05.169Z,77.67
2023-01-17T03:26:32.970Z,77.60
2023-01-17T03:29:01.751Z,77.60
2023-01-17T03:31:29.417Z,77.64
2023-01-17T03:33:57.021Z,77.65
2023-01-17T03:36:24.662Z,77.69
2023-01-17T03:38:52.329Z,77.76
2023-01-17T03:41:19.932Z,77.64
2023-01-17T03:43:47.769Z,77.73
2023-01-17T03:46:28.151Z,77.78
2023-01-17T03:48:55.827Z,77.82
2023-01-17T03:51:23.683Z,77.81
2023-01-17T03:53:51.380Z,77.89
2023-01-17T03:56:19.393Z,77.82
2023-01-17T03:58:47.122Z,78.02
2023-01-17T04:01:15.015Z,78.02
2023-01-17T04:03:42.709Z,77.89
2023-01-17T04:06:10.354Z,77.96
2023-01-17T04:08:38.132Z,77.95
2023-01-17T04:11:05.762Z,77.97
2023-01-17T04:13:33.419Z,78.06
2023-01-17T04:16:01.073Z,78.06
2023-01-17T04:18:28.808Z,78.08
2023-01-17T04:20:56.563Z,78.16
2023-01-17T04:23:24.154Z,78.04
2023-01-17T04:25:51.757Z,77.95
2023-01-17T04:28:19.373Z,77.98
2023-01-17T04:30:47.131Z,78.08
2023-01-17T04:33:15.013Z,78.11
2023-01-17T04:35:42.716Z,78.17
2023-01-17T04:38:10.442Z,78.08
2023-01-17T04:40:38.186Z,77.99
2023-01-17T04:43:05.801Z,78.01
2023-01-17T04:45:33.424Z,77.96
2023-01-17T04:48:06.099Z,77.98
2023-01-17T04:50:33.860Z,77.99
2023-01-17T04:53:01.474Z,77.93
2023-01-17T04:55:29.334Z,77.94
2023-01-17T04:57:57.096Z,77.96
2023-01-17T05:00:25.469Z,77.99
2023-01-17T05:02:53.189Z,77.94
2023-01-17T05:05:21.144Z,78.07
2023-01-17T05:07:56.759Z,77.93
2023-01-17T05:10:25.565Z,77.85
2023-01-17T05:12:58.980Z,77.85
2023-01-17T05:15:27.321Z,77.80
2023-01-17T05:17:56.090Z,77.76
2023-01-17T05:20:26.646Z,77.68
2023-01-17T05:22:56.557Z,77.63
2023-01-17T05:25:27.641Z,77.61
2023-01-17T05:27:56.709Z,77.64
2023-01-17T05:30:24.271Z,77.61
2023-01-17T05:32:54.862Z,77.59
2023-01-17T05:35:29.492Z,77.44
2023-01-17T05:37:57.229Z,77.46
2023-01-17T05:40:28.729Z,77.40
2023-01-17T05:42:59.431Z,77.44
2023-01-17T05:45:35.671Z,77.48
2023-01-17T05:48:04.231Z,77.52
2023-01-17T05:50:36.091Z,77.54
2023-01-17T05:53:12.429Z,77.47
2023-01-17T05:55:41.463Z,77.47
2023-01-17T05:58:17.590Z,77.45
2023-01-17T06:00:46.329Z,77.43
2023-01-17T06:03:15.237Z,77.35
2023-01-17T06:05:44.227Z,77.28
2023-01-17T06:08:11.984Z,77.19
2023-01-17T06:10:39.671Z,77.17
2023-01-17T06:13:14.660Z,77.01
2023-01-17T06:15:42.486Z,76.95
2023-01-17T06:18:14.031Z,76.96
2023-01-17T06:20:42.479Z,76.98
2023-01-17T06:23:13.542Z,76.90
2023-01-17T06:25:46.193Z,76.77
2023-01-17T06:28:17.758Z,76.73
2023-01-17T06:30:46.242Z,76.61
2023-01-17T06:33:14.312Z,76.55
2023-01-17T06:35:50.891Z,76.42
2023-01-17T06:38:19.673Z,76.38
2023-01-17T06:40:48.081Z,76.30
2023-01-17T06:43:16.135Z,76.23
2023-01-17T06:45:43.939Z,76.13
2023-01-17T06:48:11.712Z,75.93
2023-01-17T06:50:43.351Z,75.92
2023-01-17T06:53:11.072Z,75.94
2023-01-17T06:55:39.673Z,75.79
2023-01-17T06:58:09.664Z,75.74
2023-01-17T07:00:40.353Z,75.68
2023-01-17T07:03:19.407Z,75.66
2023-01-17T07:05:48.397Z,75.60
2023-01-17T07:08:17.643Z,75.46
2023-01-17T07:10:47.410Z,75.35
2023-01-17T07:13:15.332Z,75.17
2023-01-17T07:15:43.361Z,75.26
2023-01-17T07:18:11.203Z,75.25
2023-01-17T07:20:39.264Z,75.27
2023-01-17T07:23:07.093Z,75.23
2023-01-17T07:25:34.944Z,75.24
2023-01-17T07:28:03.060Z,75.25
2023-01-17T07:30:30.803Z,75.08
2023-01-17T07:32:58.633Z,75.22
2023-01-17T07:35:27.423Z,74.93
2023-01-17T07:37:57.780Z,74.83
2023-01-17T07:40:26.426Z,74.90
2023-01-17T07:43:12.726Z,74.88
2023-01-17T07:45:49.941Z,74.64
2023-01-17T07:48:21.563Z,74.57
2023-01-17T07:50:57.426Z,74.56
2023-01-17T07:53:29.932Z,74.59
2023-01-17T07:56:06.977Z,74.40
2023-01-17T07:58:35.796Z,74.20
2023-01-17T08:01:13.776Z,74.19
2023-01-17T08:03:42.640Z,74.01
2023-01-17T08:06:25.514Z,74.05
2023-01-17T08:08:58.390Z,73.97
2023-01-17T08:11:26.321Z,74.00
2023-01-17T08:13:59.666Z,73.88
2023-01-17T08:16:29.056Z,73.76
2023-01-17T08:18:56.728Z,73.69
2023-01-17T08:21:24.688Z,73.64
2023-01-17T08:23:52.452Z,73.71
2023-01-17T08:26:21.589Z,73.74
2023-01-17T08:29:00.426Z,73.65
2023-01-17T08:31:32.951Z,73.59
2023-01-17T08:34:00.898Z,73.32
2023-01-17T08:36:30.631Z,73.13
2023-01-17T08:38:58.493Z,72.78
2023-01-17T08:41:27.223Z,72.70
2023-01-17T08:43:54.955Z,72.59
2023-01-17T08:46:22.786Z,72.50
2023-01-17T08:48:59.520Z,72.50
2023-01-17T08:51:28.105Z,72.39
2023-01-17T08:53:56.561Z,72.22
2023-01-17T08:56:25.518Z,71.99
2023-01-17T08:58:53.300Z,72.10
2023-01-17T09:01:21.292Z,72.15
2023-01-17T09:03:50.578Z,72.10
2023-01-17T09:06:18.302Z,72.16
2023-01-17T09:08:47.206Z,71.88
2023-01-17T09:11:17.370Z,72.01
2023-01-17T09:13:45.138Z,72.32
2023-01-17T09:16:13.004Z,72.13
2023-01-17T09:18:40.927Z,71.74
2023-01-17T09:21:15.783Z,71.44
2023-01-17T09:23:43.923Z,71.13
2023-01-17T09:26:26.032Z,70.71
2023-01-17T09:28:54.669Z,70.69
2023-01-17T09:31:23.899Z,70.74
2023-01-17T09:33:53.642Z,70.92
2023-01-17T09:36:23.434Z,70.50
2023-01-17T09:38:57.227Z,70.45
2023-01-17T09:41:36.963Z,70.29
2023-01-17T09:44:20.317Z,70.23
2023-01-17T09:46:51.695Z,69.67
2023-01-17T09:49:43.686Z,69.79
2023-01-17T09:52:20.320Z,69.94
2023-01-17T09:54:50.186Z,69.51
2023-01-17T09:57:58.624Z,68.68
2023-01-17T10:00:35.204Z,68.46
2023-01-17T10:03:49.035Z,67.71
2023-01-17T10:06:51.311Z,67.44
2023-01-17T10:09:45.662Z,67.21
2023-01-17T10:12:32.628Z,66.87
2023-01-17T10:15:23.852Z,66.48
2023-01-17T10:17:57.303Z,66.16
2023-01-17T10:20:52.132Z,65.77
2023-01-17T10:23:31.937Z,65.26
2023-01-17T10:26:21.743Z,64.43
2023-01-17T10:28:52.771Z,64.14
2023-01-17T10:31:27.272Z,63.33
2023-01-17T10:34:06.434Z,62.97
2023-01-17T10:36:46.211Z,62.93
2023-01-17T10:39:28.746Z,62.86
2023-01-17T10:42:06.065Z,62.55
2023-01-17T10:45:03.797Z,61.52
2023-01-17T10:47:37.153Z,59.61
2023-01-17T10:50:05.425Z,58.39
2023-01-17T10:53:15.861Z,58.46
2023-01-17T10:55:52.766Z,58.26
2023-01-17T10:58:20.958Z,58.24
2023-01-17T11:01:00.634Z,56.91
2023-01-17T11:03:28.795Z,55.25
2023-01-17T11:06:22.395Z,54.62
2023-01-17T11:08:58.670Z,56.47
2023-01-17T11:11:33.078Z,58.01
2023-01-17T11:14:15.264Z,55.88
2023-01-17T11:16:43.451Z,54.19
2023-01-17T11:19:29.905Z,51.45
2023-01-17T11:22:04.159Z,47.40
2023-01-17T11:24:38.254Z,42.79
2023-01-17T11:27:22.111Z,41.32
2023-01-17T11:30:06.622Z,41.47
2023-01-17T11:32:35.194Z,42.21
2023-01-17T11:35:25.071Z,42.84
2023-01-17T11:38:11.308Z,42.94
2023-01-17T11:40:48.698Z,43.37
2023-01-17T11:43:27.188Z,43.80
2023-01-17T11:46:17.189Z,44.18
2023-01-17T11:49:00.272Z,44.88
2023-01-17T11:51:55.604Z,45.71
2023-01-17T11:54:41.820Z,46.72
2023-01-17T11:57:32.456Z,47.47
2023-01-17T12:00:24.045Z,48.00
2023-01-17T12:03:50.232Z,48.78
2023-01-17T12:06:33.117Z,49.50
2023-01-17T12:09:29.986Z,49.88
2023-01-17T12:12:49.545Z,50.39
2023-01-17T12:15:59.435Z,50.90
2023-01-17T12:19:00.486Z,51.02
2023-01-17T12:22:04.608Z,51.42
2023-01-17T12:25:01.222Z,51.37
2023-01-17T12:27:42.640Z,51.26
2023-01-17T12:30:50.764Z,51.24
2023-01-17T12:33:50.561Z,51.63
2023-01-17T12:36:30.646Z,51.71
2023-01-17T12:39:18.659Z,51.88
2023-01-17T12:42:42.176Z,52.22
2023-01-17T12:45:20.816Z,52.39
2023-01-17T12:47:56.204Z,52.47
2023-01-17T12:51:05.319Z,52.73
2023-01-17T12:54:10.174Z,52.79
2023-01-17T12:56:52.034Z,52.88
2023-01-17T12:59:39.859Z,52.87
2023-01-17T13:02:58.489Z,52.90
2023-01-17T13:05:41.201Z,53.06
2023-01-17T13:08:38.261Z,53.29
2023-01-17T13:11:34.882Z,53.65
2023-01-17T13:14:08.347Z,53.59
2023-01-17T13:17:11.053Z,53.49
2023-01-17T13:20:31.311Z,53.38
2023-01-17T13:23:52.723Z,53.03
2023-01-17T13:26:33.511Z,52.65
2023-01-17T13:29:39.174Z,52.22
2023-01-17T13:33:01.256Z,51.87
2023-01-17T13:36:10.103Z,51.83
2023-01-17T13:39:07.465Z,51.90
2023-01-17T13:41:54.446Z,51.77
2023-01-17T13:44:27.025Z,51.42
2023-01-17T13:47:06.076Z,51.22
2023-01-17T13:49:50.951Z,51.33
2023-01-17T13:52:18.745Z,51.18
2023-01-17T13:54:49.510Z,51.05
2023-01-17T13:57:25.981Z,51.09
2023-01-17T13:59:57.130Z,50.77
2023-01-17T14:02:38.686Z,50.69
2023-01-17T14:05:29.714Z,50.41
2023-01-17T14:08:15.085Z,50.53
2023-01-17T14:11:04.982Z,50.53
2023-01-17T14:13:39.598Z,50.37
2023-01-17T14:16:29.817Z,50.41
2023-01-17T14:18:57.748Z,50.32
2023-01-17T14:21:31.685Z,50.46
2023-01-17T14:24:03.608Z,50.42
2023-01-17T14:27:14.281Z,50.38
2023-01-17T14:29:42.159Z,50.57
2023-01-17T14:32:29.735Z,50.63
2023-01-17T14:34:58.665Z,50.83
2023-01-17T14:37:32.338Z,50.81
2023-01-17T14:40:01.016Z,50.88
2023-01-17T14:42:32.508Z,50.82
2023-01-17T14:45:12.887Z,50.74
2023-01-17T14:47:44.240Z,50.76
2023-01-17T14:50:17.905Z,50.80
2023-01-17T14:52:45.746Z,50.85
2023-01-17T14:55:18.632Z,51.12
2023-01-17T14:57:55.499Z,51.25
2023-01-17T15:00:28.573Z,51.21
2023-01-17T15:03:11.834Z,51.35
2023-01-17T15:05:45.001Z,51.47
2023-01-17T15:08:18.333Z,51.83
2023-01-17T15:10:59.874Z,52.07
2023-01-17T15:13:44.255Z,52.35
2023-01-17T15:16:38.260Z,52.64
2023-01-17T15:19:14.636Z,53.01
2023-01-17T15:21:45.285Z,53.25
2023-01-17T15:24:36.604Z,53.34
2023-01-17T15:27:05.764Z,53.42
2023-01-17T15:29:35.169Z,53.52
2023-01-17T15:32:06.432Z,53.45
2023-01-17T15:34:44.051Z,53.59
2023-01-17T15:37:41.287Z,53.69
2023-01-17T15:40:23.904Z,53.83
2023-01-17T15:42:57.860Z,53.92
2023-01-17T15:45:29.863Z,54.01
2023-01-17T15:49:00.736Z,54.16
2023-01-17T15:51:36.420Z,54.25
2023-01-17T15:54:28.361Z,54.34
2023-01-17T15:57:36.572Z,54.50
2023-01-17T16:00:17.982Z,54.65
2023-01-17T16:03:00.385Z,54.85
2023-01-17T16:05:32.631Z,54.95
2023-01-17T16:08:04.428Z,55.14
2023-01-17T16:10:36.551Z,55.31
2023-01-17T16:13:06.291Z,55.40
2023-01-17T16:15:36.320Z,55.47
2023-01-17T16:18:15.039Z,55.52
2023-01-17T16:20:53.486Z,55.61
2023-01-17T16:23:21.269Z,55.66
2023-01-17T16:25:49.014Z,55.62
2023-01-17T16:28:16.764Z,55.63
2023-01-17T16:30:45.643Z,55.76
2023-01-17T16:33:14.520Z,55.74
2023-01-17T16:35:42.463Z,55.66
2023-01-17T16:38:14.899Z,55.70
2023-01-17T16:40:45.783Z,55.62
2023-01-17T16:43:16.738Z,55.84
2023-01-17T16:45:53.402Z,55.82
2023-01-17T16:48:23.240Z,55.82
2023-01-17T16:50:52.389Z,55.88
2023-01-17T16:53:25.627Z,55.90
2023-01-17T16:56:04.916Z,55.92
2023-01-17T16:58:32.757Z,55.91
2023-01-17T17:01:02.051Z,55.80
2023-01-17T17:03:30.238Z,55.77
2023-01-17T17:06:01.330Z,55.85
2023-01-17T17:08:29.399Z,55.85
2023-01-17T17:11:32.854Z,55.81
2023-01-17T17:14:01.552Z,55.71
2023-01-17T17:16:30.080Z,55.73
2023-01-17T17:19:05.599Z,55.68
2023-01-17T17:21:36.943Z,55.58
2023-01-17T17:24:05.246Z,55.54
2023-01-17T17:26:36.447Z,55.43
2023-01-17T17:29:09.738Z,55.50
2023-01-17T17:31:42.054Z,55.32
2023-01-17T17:34:12.165Z,55.30
2023-01-17T17:36:41.312Z,55.31
2023-01-17T17:39:16.753Z,55.40
2023-01-17T17:41:45.719Z,55.48
2023-01-17T17:44:13.782Z,55.60
2023-01-17T17:46:42.494Z,55.69
2023-01-17T17:49:10.283Z,55.82
2023-01-17T17:51:40.235Z,56.03
2023-01-17T17:54:12.267Z,56.22
2023-01-17T17:56:45.741Z,56.33
2023-01-17T17:59:17.651Z,56.51
2023-01-17T18:01:47.232Z,56.67
2023-01-17T18:04:15.350Z,56.85
2023-01-17T18:06:44.043Z,57.05
2023-01-17T18:09:14.392Z,57.41
2023-01-17T18:11:43.636Z,57.53
2023-01-17T18:14:14.637Z,57.79
2023-01-17T18:16:44.859Z,57.98
2023-01-17T18:19:20.646Z,58.09
2023-01-17T18:21:50.818Z,58.02
2023-01-17T18:24:22.341Z,58.06
2023-01-17T18:26:57.243Z,58.24
2023-01-17T18:29:27.153Z,58.33
2023-01-17T18:31:56.014Z,58.32
2023-01-17T18:34:28.686Z,58.40
2023-01-17T18:36:57.479Z,58.44
2023-01-17T18:39:29.039Z,58.59
2023-01-17T18:41:57.693Z,58.74
2023-01-17T18:44:26.880Z,58.91
2023-01-17T18:46:57.498Z,59.00
2023-01-17T18:49:25.322Z,59.13
2023-01-17T18:51:53.243Z,59.33
2023-01-17T18:54:21.595Z,59.47
2023-01-17T18:56:50.546Z,59.53
2023-01-17T18:59:19.082Z,59.69
2023-01-17T19:01:47.102Z,59.72
2023-01-17T19:04:16.636Z,59.75
2023-01-17T19:06:48.987Z,59.87
2023-01-17T19:09:16.986Z,59.78
2023-01-17T19:11:46.957Z,59.96
2023-01-17T19:14:15.264Z,59.97
2023-01-17T19:16:43.459Z,60.07
2023-01-17T19:19:14.846Z,60.26
2023-01-17T19:21:42.863Z,60.37
2023-01-17T19:24:14.988Z,60.33
2023-01-17T19:26:44.917Z,60.37
2023-01-17T19:29:13.649Z,60.37
2023-01-17T19:31:42.621Z,60.51
2023-01-17T19:34:18.291Z,60.61
2023-01-17T19:36:46.617Z,60.72
2023-01-17T19:39:14.604Z,60.78
2023-01-17T19:41:45.875Z,60.86
2023-01-17T19:44:14.496Z,60.98
2023-01-17T19:46:43.582Z,60.97
2023-01-17T19:49:11.664Z,61.20
2023-01-17T19:51:39.681Z,61.35
2023-01-17T19:54:07.736Z,61.42
2023-01-17T19:56:35.676Z,61.50
2023-01-17T19:59:03.585Z,61.51
2023-01-17T20:01:33.629Z,61.71
2023-01-17T20:04:03.667Z,61.74
2023-01-17T20:06:36.361Z,61.90
2023-01-17T20:09:06.466Z,62.09
2023-01-17T20:11:34.551Z,62.29
2023-01-17T20:14:06.953Z,62.36
2023-01-17T20:16:54.892Z,62.43
2023-01-17T20:19:24.521Z,62.60
2023-01-17T20:21:53.381Z,62.82
2023-01-17T20:24:23.837Z,62.90
2023-01-17T20:26:57.544Z,62.79
2023-01-17T20:29:26.673Z,62.93
2023-01-17T20:31:54.569Z,63.02
2023-01-17T20:34:25.205Z,62.97
2023-01-17T20:36:58.663Z,63.01
2023-01-17T20:39:27.024Z,63.11
2023-01-17T20:41:55.514Z,63.03
2023-01-17T20:44:23.479Z,62.88
2023-01-17T20:46:51.379Z,62.87
2023-01-17T20:49:19.680Z,63.07
2023-01-17T20:51:47.846Z,63.14
2023-01-17T20:54:18.491Z,63.22
2023-01-17T20:56:47.188Z,63.36
2023-01-17T20:59:19.208Z,63.32
2023-01-17T21:01:49.660Z,63.40
2023-01-17T21:04:24.930Z,63.52
2023-01-17T21:06:52.891Z,63.63
2023-01-17T21:09:21.405Z,63.76
2023-01-17T21:11:51.503Z,64.03
2023-01-17T21:14:21.072Z,64.15
2023-01-17T21:16:49.705Z,64.23
2023-01-17T21:19:17.608Z,64.24
2023-01-17T21:21:45.652Z,64.45
2023-01-17T21:24:18.462Z,64.70
2023-01-17T21:26:46.698Z,64.73
2023-01-17T21:29:15.447Z,65.04
2023-01-17T21:31:44.653Z,65.19
2023-01-17T21:34:13.116Z,65.33
2023-01-17T21:36:42.803Z,65.24
2023-01-17T21:39:19.212Z,65.19
2023-01-17T21:41:50.249Z,65.05
2023-01-17T21:44:21.489Z,64.92
2023-01-17T21:46:56.179Z,64.97
2023-01-17T21:49:24.570Z,65.19
2023-01-17T21:51:52.590Z,65.36
2023-01-17T21:54:42.701Z,65.37
2023-01-17T21:57:39.240Z,65.51
2023-01-17T22:00:13.967Z,65.70
2023-01-17T22:02:45.841Z,65.77
2023-01-17T22:05:15.955Z,65.83
2023-01-17T22:08:04.797Z,65.88
2023-01-17T22:10:43.788Z,65.97
2023-01-17T22:13:17.205Z,65.97
2023-01-17T22:15:45.793Z,66.10
2023-01-17T22:18:14.658Z,66.21
2023-01-17T22:20:42.534Z,66.29
2023-01-17T22:23:12.550Z,66.41
2023-01-17T22:25:40.566Z,66.66
2023-01-17T22:28:08.731Z,66.67
2023-01-17T22:30:37.095Z,66.77
2023-01-17T22:33:05.469Z,66.85
2023-01-17T22:35:33.897Z,66.92
2023-01-17T22:38:11.912Z,67.04
2023-01-17T22:40:41.881Z,67.19
2023-01-17T22:43:12.193Z,67.27
2023-01-17T22:45:42.795Z,67.29
2023-01-17T22:48:10.820Z,67.38
2023-01-17T22:50:38.960Z,67.36
2023-01-17T22:53:07.830Z,67.37
2023-01-17T22:55:35.930Z,67.69
2023-01-17T22:58:04.103Z,68.07
2023-01-17T23:00:32.167Z,68.26
2023-01-17T23:03:00.598Z,68.50
2023-01-17T23:05:28.833Z,68.56
2023-01-17T23:07:56.675Z,68.60
2023-01-17T23:10:43.517Z,68.54
2023-01-17T23:13:15.878Z,68.53
2023-01-17T23:16:02.113Z,68.49
2023-01-17T23:18:48.111Z,68.64
2023-01-17T23:21:15.977Z,68.55
2023-01-17T23:23:43.931Z,68.62
2023-01-17T23:26:12.010Z,68.69
2023-01-17T23:28:40.094Z,68.48
2023-01-17T23:31:10.340Z,68.38
2023-01-17T23:33:38.281Z,68.40
2023-01-17T23:36:08.720Z,68.46
2023-01-17T23:38:40.231Z,68.58
2023-01-17T23:41:27.119Z,68.64
2023-01-17T23:43:58.450Z,68.83
2023-01-17T23:46:28.086Z,68.73
2023-01-17T23:48:55.996Z,68.82
2023-01-17T23:51:23.939Z,68.81
2023-01-17T23:53:56.691Z,68.96
2023-01-17T23:56:24.677Z,68.86
2023-01-17T23:58:52.739Z,68.99
